sensor_id;sensor_type;location;lat;lon;timestamp;P1;durP1;ratioP1;P2;durP2;ratioP2
18853;SDS011;9556;49.374;19.446;2022-09-27T00:01:17;292.58;;;175.65;;
18853;SDS011;9556;49.374;19.446;2022-09-27T00:03:44;290.55;;;180.95;;
18853;SDS011;9556;49.374;19.446;2022-09-27T00:06:12;305.80;;;179.65;;
18853;SDS011;9556;49.374;19.446;2022-09-27T00:08:40;304.40;;;183.23;;
18853;SDS011;9556;49.374;19.446;2022-09-27T00:11:09;301.98;;;179.55;;
18853;SDS011;9556;49.374;19.446;2022-09-27T00:13:37;315.85;;;187.93;;
18853;SDS011;9556;49.374;19.446;2022-09-27T00:16:05;306.75;;;184.55;;
18853;SDS011;9556;49.374;19.446;2022-09-27T00:18:33;311.25;;;188.27;;
18853;SDS011;9556;49.374;19.446;2022-09-27T00:21:05;300.23;;;184.90;;
18853;SDS011;9556;49.374;19.446;2022-09-27T00:23:32;317.98;;;193.73;;
18853;SDS011;9556;49.374;19.446;2022-09-27T00:25:59;322.08;;;195.88;;
18853;SDS011;9556;49.374;19.446;2022-09-27T00:28:27;326.17;;;195.90;;
18853;SDS011;9556;49.374;19.446;2022-09-27T00:30:55;322.33;;;197.10;;
18853;SDS011;9556;49.374;19.446;2022-09-27T00:33:23;328.98;;;198.88;;
18853;SDS011;9556;49.374;19.446;2022-09-27T00:35:51;332.95;;;201.35;;
18853;SDS011;9556;49.374;19.446;2022-09-27T00:38:18;323.52;;;198.98;;
18853;SDS011;9556;49.374;19.446;2022-09-27T00:40:46;331.38;;;201.48;;
18853;SDS011;9556;49.374;19.446;2022-09-27T00:43:14;327.27;;;202.15;;
18853;SDS011;9556;49.374;19.446;2022-09-27T00:45:42;336.98;;;203.02;;
18853;SDS011;9556;49.374;19.446;2022-09-27T00:48:10;335.35;;;202.25;;
18853;SDS011;9556;49.374;19.446;2022-09-27T00:50:40;338.00;;;206.07;;
18853;SDS011;9556;49.374;19.446;2022-09-27T00:53:13;343.80;;;205.95;;
18853;SDS011;9556;49.374;19.446;2022-09-27T00:55:42;341.88;;;204.70;;
18853;SDS011;9556;49.374;19.446;2022-09-27T00:58:10;346.95;;;210.95;;
18853;SDS011;9556;49.374;19.446;2022-09-27T01:00:39;336.90;;;207.57;;
18853;SDS011;9556;49.374;19.446;2022-09-27T01:03:09;343.85;;;209.60;;
18853;SDS011;9556;49.374;19.446;2022-09-27T01:05:40;355.60;;;215.45;;
18853;SDS011;9556;49.374;19.446;2022-09-27T01:08:07;339.95;;;212.13;;
18853;SDS011;9556;49.374;19.446;2022-09-27T01:10:43;349.70;;;219.88;;
18853;SDS011;9556;49.374;19.446;2022-09-27T01:13:15;351.83;;;215.77;;
18853;SDS011;9556;49.374;19.446;2022-09-27T01:15:46;344.30;;;211.15;;
18853;SDS011;9556;49.374;19.446;2022-09-27T01:18:22;350.02;;;218.98;;
18853;SDS011;9556;49.374;19.446;2022-09-27T01:20:55;353.80;;;221.18;;
18853;SDS011;9556;49.374;19.446;2022-09-27T01:23:36;358.17;;;218.88;;
18853;SDS011;9556;49.374;19.446;2022-09-27T01:26:11;358.52;;;222.07;;
18853;SDS011;9556;49.374;19.446;2022-09-27T01:28:52;359.63;;;223.55;;
18853;SDS011;9556;49.374;19.446;2022-09-27T01:31:23;373.15;;;228.23;;
18853;SDS011;9556;49.374;19.446;2022-09-27T01:33:55;361.30;;;221.55;;
18853;SDS011;9556;49.374;19.446;2022-09-27T01:36:29;373.35;;;227.10;;
18853;SDS011;9556;49.374;19.446;2022-09-27T01:39:02;372.55;;;225.68;;
18853;SDS011;9556;49.374;19.446;2022-09-27T01:41:33;367.10;;;230.45;;
18853;SDS011;9556;49.374;19.446;2022-09-27T01:44:03;368.20;;;225.65;;
18853;SDS011;9556;49.374;19.446;2022-09-27T01:46:32;364.13;;;227.35;;
18853;SDS011;9556;49.374;19.446;2022-09-27T01:49:02;368.38;;;228.23;;
18853;SDS011;9556;49.374;19.446;2022-09-27T01:51:30;374.45;;;235.25;;
18853;SDS011;9556;49.374;19.446;2022-09-27T01:54:00;381.73;;;235.45;;
18853;SDS011;9556;49.374;19.446;2022-09-27T01:56:29;373.45;;;235.23;;
18853;SDS011;9556;49.374;19.446;2022-09-27T01:58:58;366.58;;;230.50;;
18853;SDS011;9556;49.374;19.446;2022-09-27T02:01:27;375.90;;;233.20;;
18853;SDS011;9556;49.374;19.446;2022-09-27T02:03:57;389.08;;;236.52;;
18853;SDS011;9556;49.374;19.446;2022-09-27T02:06:27;374.75;;;238.30;;
18853;SDS011;9556;49.374;19.446;2022-09-27T02:08:57;383.17;;;237.27;;
18853;SDS011;9556;49.374;19.446;2022-09-27T02:11:25;391.17;;;239.88;;
18853;SDS011;9556;49.374;19.446;2022-09-27T02:13:53;387.70;;;240.82;;
18853;SDS011;9556;49.374;19.446;2022-09-27T02:16:22;384.23;;;241.90;;
18853;SDS011;9556;49.374;19.446;2022-09-27T02:18:59;395.00;;;242.68;;
18853;SDS011;9556;49.374;19.446;2022-09-27T02:21:30;399.50;;;244.20;;
18853;SDS011;9556;49.374;19.446;2022-09-27T02:23:59;397.55;;;242.88;;
18853;SDS011;9556;49.374;19.446;2022-09-27T02:26:30;412.33;;;248.68;;
18853;SDS011;9556;49.374;19.446;2022-09-27T02:28:59;391.20;;;246.23;;
18853;SDS011;9556;49.374;19.446;2022-09-27T02:31:30;399.23;;;249.02;;
18853;SDS011;9556;49.374;19.446;2022-09-27T02:33:58;384.98;;;241.40;;
18853;SDS011;9556;49.374;19.446;2022-09-27T02:36:27;396.05;;;244.80;;
18853;SDS011;9556;49.374;19.446;2022-09-27T02:38:54;397.58;;;247.68;;
18853;SDS011;9556;49.374;19.446;2022-09-27T02:41:21;408.58;;;253.00;;
18853;SDS011;9556;49.374;19.446;2022-09-27T02:43:50;406.42;;;252.18;;
18853;SDS011;9556;49.374;19.446;2022-09-27T02:46:23;413.98;;;252.48;;
18853;SDS011;9556;49.374;19.446;2022-09-27T02:48:57;406.63;;;251.48;;
18853;SDS011;9556;49.374;19.446;2022-09-27T02:51:32;403.02;;;253.98;;
18853;SDS011;9556;49.374;19.446;2022-09-27T02:54:04;414.83;;;258.88;;
18853;SDS011;9556;49.374;19.446;2022-09-27T02:56:33;419.17;;;259.50;;
18853;SDS011;9556;49.374;19.446;2022-09-27T02:59:03;421.17;;;264.77;;
18853;SDS011;9556;49.374;19.446;2022-09-27T03:01:33;439.95;;;266.25;;
18853;SDS011;9556;49.374;19.446;2022-09-27T03:04:03;422.10;;;263.55;;
18853;SDS011;9556;49.374;19.446;2022-09-27T03:06:35;426.75;;;271.48;;
18853;SDS011;9556;49.374;19.446;2022-09-27T03:09:03;442.52;;;274.13;;
18853;SDS011;9556;49.374;19.446;2022-09-27T03:11:31;447.55;;;273.98;;
18853;SDS011;9556;49.374;19.446;2022-09-27T03:13:58;448.80;;;276.80;;
18853;SDS011;9556;49.374;19.446;2022-09-27T03:16:25;444.67;;;275.58;;
18853;SDS011;9556;49.374;19.446;2022-09-27T03:18:52;446.42;;;277.05;;
18853;SDS011;9556;49.374;19.446;2022-09-27T03:21:19;450.25;;;275.52;;
18853;SDS011;9556;49.374;19.446;2022-09-27T03:23:48;440.77;;;275.20;;
18853;SDS011;9556;49.374;19.446;2022-09-27T03:26:15;453.88;;;275.40;;
18853;SDS011;9556;49.374;19.446;2022-09-27T03:28:42;443.17;;;276.92;;
18853;SDS011;9556;49.374;19.446;2022-09-27T03:31:10;453.38;;;277.98;;
18853;SDS011;9556;49.374;19.446;2022-09-27T03:33:37;453.35;;;278.98;;
18853;SDS011;9556;49.374;19.446;2022-09-27T03:36:04;448.55;;;276.48;;
18853;SDS011;9556;49.374;19.446;2022-09-27T03:38:31;449.80;;;277.35;;
18853;SDS011;9556;49.374;19.446;2022-09-27T03:41:00;441.23;;;278.35;;
18853;SDS011;9556;49.374;19.446;2022-09-27T03:43:27;438.70;;;269.77;;
18853;SDS011;9556;49.374;19.446;2022-09-27T03:45:54;442.08;;;271.15;;
18853;SDS011;9556;49.374;19.446;2022-09-27T03:48:21;426.48;;;268.60;;
18853;SDS011;9556;49.374;19.446;2022-09-27T03:50:49;434.60;;;268.48;;
18853;SDS011;9556;49.374;19.446;2022-09-27T03:53:16;431.55;;;268.67;;
18853;SDS011;9556;49.374;19.446;2022-09-27T03:55:44;424.70;;;264.20;;
18853;SDS011;9556;49.374;19.446;2022-09-27T03:58:13;428.48;;;267.88;;
18853;SDS011;9556;49.374;19.446;2022-09-27T04:00:40;428.35;;;267.05;;
18853;SDS011;9556;49.374;19.446;2022-09-27T04:03:08;424.70;;;261.13;;
18853;SDS011;9556;49.374;19.446;2022-09-27T04:05:36;429.33;;;268.20;;
18853;SDS011;9556;49.374;19.446;2022-09-27T04:08:03;418.42;;;264.85;;
18853;SDS011;9556;49.374;19.446;2022-09-27T04:10:31;428.70;;;263.83;;
18853;SDS011;9556;49.374;19.446;2022-09-27T04:13:00;415.55;;;257.77;;
18853;SDS011;9556;49.374;19.446;2022-09-27T04:15:29;405.65;;;252.95;;
18853;SDS011;9556;49.374;19.446;2022-09-27T04:17:56;402.52;;;251.48;;
18853;SDS011;9556;49.374;19.446;2022-09-27T04:20:23;394.45;;;241.73;;
18853;SDS011;9556;49.374;19.446;2022-09-27T04:22:50;406.88;;;256.65;;
18853;SDS011;9556;49.374;19.446;2022-09-27T04:25:17;413.55;;;254.35;;
18853;SDS011;9556;49.374;19.446;2022-09-27T04:27:44;416.60;;;252.90;;
18853;SDS011;9556;49.374;19.446;2022-09-27T04:30:12;415.05;;;253.45;;
18853;SDS011;9556;49.374;19.446;2022-09-27T04:32:41;424.50;;;254.13;;
18853;SDS011;9556;49.374;19.446;2022-09-27T04:35:08;425.15;;;257.45;;
18853;SDS011;9556;49.374;19.446;2022-09-27T04:37:53;416.58;;;255.18;;
18853;SDS011;9556;49.374;19.446;2022-09-27T04:40:20;439.70;;;260.50;;
18853;SDS011;9556;49.374;19.446;2022-09-27T04:42:47;431.83;;;257.20;;
18853;SDS011;9556;49.374;19.446;2022-09-27T04:45:14;419.95;;;254.93;;
18853;SDS011;9556;49.374;19.446;2022-09-27T04:47:43;400.58;;;247.88;;
18853;SDS011;9556;49.374;19.446;2022-09-27T04:50:10;407.65;;;250.73;;
18853;SDS011;9556;49.374;19.446;2022-09-27T04:52:37;409.10;;;252.27;;
18853;SDS011;9556;49.374;19.446;2022-09-27T04:55:05;415.45;;;248.55;;
18853;SDS011;9556;49.374;19.446;2022-09-27T04:57:33;415.33;;;250.23;;
18853;SDS011;9556;49.374;19.446;2022-09-27T05:00:00;399.05;;;244.75;;
18853;SDS011;9556;49.374;19.446;2022-09-27T05:02:28;403.45;;;244.02;;
18853;SDS011;9556;49.374;19.446;2022-09-27T05:04:56;400.48;;;241.93;;
18853;SDS011;9556;49.374;19.446;2022-09-27T05:07:24;383.65;;;239.35;;
18853;SDS011;9556;49.374;19.446;2022-09-27T05:09:51;384.65;;;240.57;;
18853;SDS011;9556;49.374;19.446;2022-09-27T05:12:19;383.02;;;236.55;;
18853;SDS011;9556;49.374;19.446;2022-09-27T05:14:46;382.23;;;237.20;;
18853;SDS011;9556;49.374;19.446;2022-09-27T05:17:13;390.90;;;239.63;;
18853;SDS011;9556;49.374;19.446;2022-09-27T05:19:41;368.65;;;233.30;;
18853;SDS011;9556;49.374;19.446;2022-09-27T05:22:09;385.17;;;236.40;;
18853;SDS011;9556;49.374;19.446;2022-09-27T05:24:36;376.08;;;229.27;;
18853;SDS011;9556;49.374;19.446;2022-09-27T05:27:04;382.00;;;231.57;;
18853;SDS011;9556;49.374;19.446;2022-09-27T05:29:32;387.45;;;235.35;;
18853;SDS011;9556;49.374;19.446;2022-09-27T05:32:00;378.42;;;232.23;;
18853;SDS011;9556;49.374;19.446;2022-09-27T05:34:27;391.77;;;238.23;;
18853;SDS011;9556;49.374;19.446;2022-09-27T05:36:56;383.48;;;230.85;;
18853;SDS011;9556;49.374;19.446;2022-09-27T05:39:24;384.13;;;231.65;;
18853;SDS011;9556;49.374;19.446;2022-09-27T05:41:51;392.90;;;231.20;;
18853;SDS011;9556;49.374;19.446;2022-09-27T05:44:20;390.33;;;231.43;;
18853;SDS011;9556;49.374;19.446;2022-09-27T05:46:47;376.67;;;227.35;;
18853;SDS011;9556;49.374;19.446;2022-09-27T05:49:14;372.27;;;227.35;;
18853;SDS011;9556;49.374;19.446;2022-09-27T05:51:41;369.20;;;226.10;;
18853;SDS011;9556;49.374;19.446;2022-09-27T05:54:08;367.30;;;224.02;;
18853;SDS011;9556;49.374;19.446;2022-09-27T05:56:37;371.83;;;228.43;;
18853;SDS011;9556;49.374;19.446;2022-09-27T05:59:04;372.20;;;222.63;;
18853;SDS011;9556;49.374;19.446;2022-09-27T06:01:31;368.90;;;223.02;;
18853;SDS011;9556;49.374;19.446;2022-09-27T06:03:59;364.85;;;217.18;;
18853;SDS011;9556;49.374;19.446;2022-09-27T06:06:27;359.67;;;223.02;;
18853;SDS011;9556;49.374;19.446;2022-09-27T06:08:54;375.15;;;227.52;;
18853;SDS011;9556;49.374;19.446;2022-09-27T06:11:21;369.10;;;223.65;;
18853;SDS011;9556;49.374;19.446;2022-09-27T06:13:50;378.83;;;228.23;;
18853;SDS011;9556;49.374;19.446;2022-09-27T06:16:17;363.95;;;224.07;;
18853;SDS011;9556;49.374;19.446;2022-09-27T06:18:45;363.95;;;218.38;;
18853;SDS011;9556;49.374;19.446;2022-09-27T06:21:12;370.77;;;219.32;;
18853;SDS011;9556;49.374;19.446;2022-09-27T06:23:39;356.85;;;213.95;;
18853;SDS011;9556;49.374;19.446;2022-09-27T06:26:06;347.83;;;211.65;;
18853;SDS011;9556;49.374;19.446;2022-09-27T06:28:34;357.55;;;214.48;;
18853;SDS011;9556;49.374;19.446;2022-09-27T06:31:03;353.15;;;216.00;;
18853;SDS011;9556;49.374;19.446;2022-09-27T06:33:32;356.75;;;213.10;;
18853;SDS011;9556;49.374;19.446;2022-09-27T06:35:59;360.80;;;216.43;;
18853;SDS011;9556;49.374;19.446;2022-09-27T06:38:27;351.58;;;212.25;;
18853;SDS011;9556;49.374;19.446;2022-09-27T06:40:54;341.52;;;211.25;;
18853;SDS011;9556;49.374;19.446;2022-09-27T06:43:23;346.60;;;210.43;;
18853;SDS011;9556;49.374;19.446;2022-09-27T06:45:50;357.52;;;213.35;;
18853;SDS011;9556;49.374;19.446;2022-09-27T06:48:19;344.33;;;209.02;;
18853;SDS011;9556;49.374;19.446;2022-09-27T06:50:46;342.70;;;207.73;;
18853;SDS011;9556;49.374;19.446;2022-09-27T06:53:14;359.08;;;210.00;;
18853;SDS011;9556;49.374;19.446;2022-09-27T06:55:41;336.50;;;205.65;;
18853;SDS011;9556;49.374;19.446;2022-09-27T06:58:09;340.05;;;205.82;;
18853;SDS011;9556;49.374;19.446;2022-09-27T07:00:54;338.52;;;204.43;;
18853;SDS011;9556;49.374;19.446;2022-09-27T07:03:24;326.48;;;198.70;;
18853;SDS011;9556;49.374;19.446;2022-09-27T07:05:55;327.25;;;199.50;;
18853;SDS011;9556;49.374;19.446;2022-09-27T07:08:23;331.75;;;202.80;;
18853;SDS011;9556;49.374;19.446;2022-09-27T07:10:52;339.88;;;200.63;;
18853;SDS011;9556;49.374;19.446;2022-09-27T07:13:20;331.38;;;197.52;;
18853;SDS011;9556;49.374;19.446;2022-09-27T07:15:47;326.77;;;196.25;;
18853;SDS011;9556;49.374;19.446;2022-09-27T07:18:15;329.83;;;195.93;;
18853;SDS011;9556;49.374;19.446;2022-09-27T07:20:43;320.00;;;193.95;;
18853;SDS011;9556;49.374;19.446;2022-09-27T07:23:10;317.08;;;190.52;;
18853;SDS011;9556;49.374;19.446;2022-09-27T07:25:38;322.60;;;191.00;;
18853;SDS011;9556;49.374;19.446;2022-09-27T07:28:06;313.50;;;190.65;;
18853;SDS011;9556;49.374;19.446;2022-09-27T07:30:33;311.27;;;185.63;;
18853;SDS011;9556;49.374;19.446;2022-09-27T07:33:01;310.58;;;185.35;;
18853;SDS011;9556;49.374;19.446;2022-09-27T07:35:30;301.70;;;178.38;;
18853;SDS011;9556;49.374;19.446;2022-09-27T07:37:58;302.48;;;182.07;;
18853;SDS011;9556;49.374;19.446;2022-09-27T07:40:25;305.17;;;179.93;;
18853;SDS011;9556;49.374;19.446;2022-09-27T07:42:53;294.80;;;177.48;;
18853;SDS011;9556;49.374;19.446;2022-09-27T07:45:20;288.95;;;172.38;;
18853;SDS011;9556;49.374;19.446;2022-09-27T07:47:48;296.73;;;173.25;;
18853;SDS011;9556;49.374;19.446;2022-09-27T07:50:15;293.38;;;174.60;;
18853;SDS011;9556;49.374;19.446;2022-09-27T07:52:43;279.63;;;170.85;;
18853;SDS011;9556;49.374;19.446;2022-09-27T07:55:12;283.77;;;170.00;;
18853;SDS011;9556;49.374;19.446;2022-09-27T07:57:40;287.88;;;171.82;;
18853;SDS011;9556;49.374;19.446;2022-09-27T08:00:09;283.60;;;168.10;;
18853;SDS011;9556;49.374;19.446;2022-09-27T08:02:37;281.20;;;164.77;;
18853;SDS011;9556;49.374;19.446;2022-09-27T08:05:04;287.67;;;167.60;;
18853;SDS011;9556;49.374;19.446;2022-09-27T08:07:32;269.48;;;164.43;;
18853;SDS011;9556;49.374;19.446;2022-09-27T08:09:59;277.42;;;161.55;;
18853;SDS011;9556;49.374;19.446;2022-09-27T08:12:27;270.60;;;161.80;;
18853;SDS011;9556;49.374;19.446;2022-09-27T08:14:54;273.27;;;159.93;;
18853;SDS011;9556;49.374;19.446;2022-09-27T08:17:25;267.98;;;158.75;;
18853;SDS011;9556;49.374;19.446;2022-09-27T08:19:52;266.60;;;159.15;;
18853;SDS011;9556;49.374;19.446;2022-09-27T08:22:20;260.33;;;155.40;;
18853;SDS011;9556;49.374;19.446;2022-09-27T08:24:47;263.55;;;157.73;;
18853;SDS011;9556;49.374;19.446;2022-09-27T08:27:15;260.17;;;155.30;;
18853;SDS011;9556;49.374;19.446;2022-09-27T08:29:43;252.02;;;150.93;;
18853;SDS011;9556;49.374;19.446;2022-09-27T08:32:12;261.42;;;153.20;;
18853;SDS011;9556;49.374;19.446;2022-09-27T08:34:40;246.23;;;150.48;;
18853;SDS011;9556;49.374;19.446;2022-09-27T08:37:07;253.15;;;152.25;;
18853;SDS011;9556;49.374;19.446;2022-09-27T08:39:34;254.65;;;147.38;;
18853;SDS011;9556;49.374;19.446;2022-09-27T08:42:02;253.57;;;148.68;;
18853;SDS011;9556;49.374;19.446;2022-09-27T08:44:33;249.98;;;150.65;;
18853;SDS011;9556;49.374;19.446;2022-09-27T08:47:05;241.50;;;146.35;;
18853;SDS011;9556;49.374;19.446;2022-09-27T08:49:37;241.32;;;146.60;;
18853;SDS011;9556;49.374;19.446;2022-09-27T08:52:04;237.57;;;143.35;;
18853;SDS011;9556;49.374;19.446;2022-09-27T08:54:33;244.05;;;144.05;;
18853;SDS011;9556;49.374;19.446;2022-09-27T08:57:03;230.13;;;142.13;;
18853;SDS011;9556;49.374;19.446;2022-09-27T08:59:33;225.85;;;137.40;;
18853;SDS011;9556;49.374;19.446;2022-09-27T09:02:02;230.90;;;138.30;;
18853;SDS011;9556;49.374;19.446;2022-09-27T09:04:34;223.25;;;137.85;;
18853;SDS011;9556;49.374;19.446;2022-09-27T09:07:05;226.73;;;138.80;;
18853;SDS011;9556;49.374;19.446;2022-09-27T09:09:37;223.73;;;136.45;;
18853;SDS011;9556;49.374;19.446;2022-09-27T09:12:08;219.38;;;138.15;;
18853;SDS011;9556;49.374;19.446;2022-09-27T09:15:00;227.35;;;136.85;;
18853;SDS011;9556;49.374;19.446;2022-09-27T09:17:35;227.60;;;136.48;;
18853;SDS011;9556;49.374;19.446;2022-09-27T09:20:12;230.20;;;136.23;;
18853;SDS011;9556;49.374;19.446;2022-09-27T09:22:45;221.20;;;134.32;;
18853;SDS011;9556;49.374;19.446;2022-09-27T09:25:21;219.88;;;134.95;;
18853;SDS011;9556;49.374;19.446;2022-09-27T09:27:51;212.65;;;131.15;;
18853;SDS011;9556;49.374;19.446;2022-09-27T09:30:21;212.00;;;130.20;;
18853;SDS011;9556;49.374;19.446;2022-09-27T09:33:01;214.40;;;133.27;;
18853;SDS011;9556;49.374;19.446;2022-09-27T09:35:37;211.38;;;131.98;;
18853;SDS011;9556;49.374;19.446;2022-09-27T09:38:08;211.88;;;131.98;;
18853;SDS011;9556;49.374;19.446;2022-09-27T09:40:38;217.45;;;130.57;;
18853;SDS011;9556;49.374;19.446;2022-09-27T09:43:08;206.93;;;127.38;;
18853;SDS011;9556;49.374;19.446;2022-09-27T09:45:37;206.30;;;126.65;;
18853;SDS011;9556;49.374;19.446;2022-09-27T09:48:08;196.52;;;125.03;;
18853;SDS011;9556;49.374;19.446;2022-09-27T09:50:41;210.75;;;123.95;;
18853;SDS011;9556;49.374;19.446;2022-09-27T09:53:11;223.05;;;126.05;;
18853;SDS011;9556;49.374;19.446;2022-09-27T09:55:40;214.10;;;125.57;;
18853;SDS011;9556;49.374;19.446;2022-09-27T09:58:15;195.35;;;123.28;;
18853;SDS011;9556;49.374;19.446;2022-09-27T10:00:45;193.32;;;119.97;;
18853;SDS011;9556;49.374;19.446;2022-09-27T10:03:13;201.77;;;122.38;;
18853;SDS011;9556;49.374;19.446;2022-09-27T10:05:42;185.35;;;118.97;;
18853;SDS011;9556;49.374;19.446;2022-09-27T10:08:11;194.18;;;120.10;;
18853;SDS011;9556;49.374;19.446;2022-09-27T10:10:40;191.32;;;119.05;;
18853;SDS011;9556;49.374;19.446;2022-09-27T10:13:07;193.77;;;119.82;;
18853;SDS011;9556;49.374;19.446;2022-09-27T10:15:36;209.00;;;119.68;;
18853;SDS011;9556;49.374;19.446;2022-09-27T10:18:03;190.15;;;118.60;;
18853;SDS011;9556;49.374;19.446;2022-09-27T10:20:37;180.25;;;116.55;;
18853;SDS011;9556;49.374;19.446;2022-09-27T10:23:09;187.90;;;115.53;;
18853;SDS011;9556;49.374;19.446;2022-09-27T10:25:47;184.13;;;116.78;;
18853;SDS011;9556;49.374;19.446;2022-09-27T10:28:25;186.25;;;115.07;;
18853;SDS011;9556;49.374;19.446;2022-09-27T10:30:57;185.00;;;116.47;;
18853;SDS011;9556;49.374;19.446;2022-09-27T10:33:25;172.75;;;109.75;;
18853;SDS011;9556;49.374;19.446;2022-09-27T10:35:54;170.63;;;108.68;;
18853;SDS011;9556;49.374;19.446;2022-09-27T10:38:24;170.35;;;108.35;;
18853;SDS011;9556;49.374;19.446;2022-09-27T10:40:52;174.38;;;108.03;;
18853;SDS011;9556;49.374;19.446;2022-09-27T10:43:29;172.48;;;108.50;;
18853;SDS011;9556;49.374;19.446;2022-09-27T10:46:09;167.30;;;105.47;;
18853;SDS011;9556;49.374;19.446;2022-09-27T10:48:38;161.95;;;104.28;;
18853;SDS011;9556;49.374;19.446;2022-09-27T10:51:07;156.00;;;101.95;;
18853;SDS011;9556;49.374;19.446;2022-09-27T10:53:46;166.18;;;103.70;;
18853;SDS011;9556;49.374;19.446;2022-09-27T10:56:18;158.25;;;101.85;;
18853;SDS011;9556;49.374;19.446;2022-09-27T10:58:47;159.23;;;101.15;;
18853;SDS011;9556;49.374;19.446;2022-09-27T11:01:14;160.15;;;100.97;;
18853;SDS011;9556;49.374;19.446;2022-09-27T11:03:45;160.23;;;103.22;;
18853;SDS011;9556;49.374;19.446;2022-09-27T11:06:23;157.40;;;101.68;;
18853;SDS011;9556;49.374;19.446;2022-09-27T11:08:54;157.68;;;96.63;;
18853;SDS011;9556;49.374;19.446;2022-09-27T11:11:22;157.88;;;96.93;;
18853;SDS011;9556;49.374;19.446;2022-09-27T11:13:57;153.73;;;97.25;;
18853;SDS011;9556;49.374;19.446;2022-09-27T11:16:37;155.27;;;96.28;;
18853;SDS011;9556;49.374;19.446;2022-09-27T11:19:10;161.85;;;96.93;;
18853;SDS011;9556;49.374;19.446;2022-09-27T11:21:42;157.15;;;94.60;;
18853;SDS011;9556;49.374;19.446;2022-09-27T11:24:17;150.50;;;93.80;;
18853;SDS011;9556;49.374;19.446;2022-09-27T11:26:49;158.88;;;96.40;;
18853;SDS011;9556;49.374;19.446;2022-09-27T11:29:24;149.98;;;94.53;;
18853;SDS011;9556;49.374;19.446;2022-09-27T11:31:58;145.25;;;90.13;;
18853;SDS011;9556;49.374;19.446;2022-09-27T11:34:30;147.82;;;90.97;;
18853;SDS011;9556;49.374;19.446;2022-09-27T11:37:04;142.48;;;89.00;;
18853;SDS011;9556;49.374;19.446;2022-09-27T11:39:36;139.38;;;85.32;;
18853;SDS011;9556;49.374;19.446;2022-09-27T11:42:12;139.27;;;86.82;;
18853;SDS011;9556;49.374;19.446;2022-09-27T11:44:44;134.30;;;83.78;;
18853;SDS011;9556;49.374;19.446;2022-09-27T11:47:16;141.48;;;85.63;;
18853;SDS011;9556;49.374;19.446;2022-09-27T11:49:54;129.25;;;82.65;;
18853;SDS011;9556;49.374;19.446;2022-09-27T11:52:30;145.80;;;87.10;;
18853;SDS011;9556;49.374;19.446;2022-09-27T11:55:10;137.68;;;83.40;;
18853;SDS011;9556;49.374;19.446;2022-09-27T11:57:41;128.32;;;82.38;;
18853;SDS011;9556;49.374;19.446;2022-09-27T12:00:13;132.00;;;83.22;;
18853;SDS011;9556;49.374;19.446;2022-09-27T12:02:54;135.07;;;83.60;;
18853;SDS011;9556;49.374;19.446;2022-09-27T12:05:24;128.00;;;81.15;;
18853;SDS011;9556;49.374;19.446;2022-09-27T12:07:55;134.93;;;82.18;;
18853;SDS011;9556;49.374;19.446;2022-09-27T12:10:28;127.93;;;79.50;;
18853;SDS011;9556;49.374;19.446;2022-09-27T12:12:55;122.32;;;78.53;;
18853;SDS011;9556;49.374;19.446;2022-09-27T12:15:24;125.22;;;80.03;;
18853;SDS011;9556;49.374;19.446;2022-09-27T12:17:55;126.10;;;78.72;;
18853;SDS011;9556;49.374;19.446;2022-09-27T12:20:23;124.82;;;76.53;;
18853;SDS011;9556;49.374;19.446;2022-09-27T12:22:53;115.82;;;74.22;;
18853;SDS011;9556;49.374;19.446;2022-09-27T12:25:21;121.18;;;75.43;;
18853;SDS011;9556;49.374;19.446;2022-09-27T12:27:51;116.13;;;73.95;;
18853;SDS011;9556;49.374;19.446;2022-09-27T12:30:19;125.28;;;75.78;;
18853;SDS011;9556;49.374;19.446;2022-09-27T12:32:50;117.97;;;73.00;;
18853;SDS011;9556;49.374;19.446;2022-09-27T12:35:21;121.60;;;73.93;;
18853;SDS011;9556;49.374;19.446;2022-09-27T12:37:50;114.60;;;73.05;;
18853;SDS011;9556;49.374;19.446;2022-09-27T12:40:18;124.53;;;73.90;;
18853;SDS011;9556;49.374;19.446;2022-09-27T12:42:48;127.03;;;73.38;;
18853;SDS011;9556;49.374;19.446;2022-09-27T12:45:18;120.72;;;71.40;;
18853;SDS011;9556;49.374;19.446;2022-09-27T12:47:51;115.53;;;70.68;;
18853;SDS011;9556;49.374;19.446;2022-09-27T12:50:23;116.10;;;72.75;;
18853;SDS011;9556;49.374;19.446;2022-09-27T12:52:54;118.20;;;73.35;;
18853;SDS011;9556;49.374;19.446;2022-09-27T12:55:27;117.55;;;74.22;;
18853;SDS011;9556;49.374;19.446;2022-09-27T12:58:07;124.93;;;76.45;;
18853;SDS011;9556;49.374;19.446;2022-09-27T13:00:38;119.68;;;74.75;;
18853;SDS011;9556;49.374;19.446;2022-09-27T13:03:17;135.45;;;82.22;;
18853;SDS011;9556;49.374;19.446;2022-09-27T13:11:20;116.65;;;70.63;;
18853;SDS011;9556;49.374;19.446;2022-09-27T13:13:49;114.35;;;71.57;;
18853;SDS011;9556;49.374;19.446;2022-09-27T13:16:22;111.88;;;68.38;;
18853;SDS011;9556;49.374;19.446;2022-09-27T13:18:51;108.32;;;69.55;;
18853;SDS011;9556;49.374;19.446;2022-09-27T13:24:16;111.13;;;70.28;;
18853;SDS011;9556;49.374;19.446;2022-09-27T13:26:54;115.85;;;69.65;;
18853;SDS011;9556;49.374;19.446;2022-09-27T13:29:26;105.40;;;68.18;;
18853;SDS011;9556;49.374;19.446;2022-09-27T13:34:43;106.93;;;67.05;;
18853;SDS011;9556;49.374;19.446;2022-09-27T13:37:28;107.55;;;64.75;;
18853;SDS011;9556;49.374;19.446;2022-09-27T13:40:10;105.18;;;65.57;;
18853;SDS011;9556;49.374;19.446;2022-09-27T13:42:47;113.03;;;69.68;;
18853;SDS011;9556;49.374;19.446;2022-09-27T13:45:21;107.68;;;66.97;;
18853;SDS011;9556;49.374;19.446;2022-09-27T13:47:53;108.80;;;64.55;;
18853;SDS011;9556;49.374;19.446;2022-09-27T13:50:25;98.63;;;62.00;;
18853;SDS011;9556;49.374;19.446;2022-09-27T13:52:57;102.95;;;62.92;;
18853;SDS011;9556;49.374;19.446;2022-09-27T13:55:39;98.43;;;61.45;;
18853;SDS011;9556;49.374;19.446;2022-09-27T14:00:49;96.70;;;57.22;;
18853;SDS011;9556;49.374;19.446;2022-09-27T14:03:17;100.50;;;59.30;;
18853;SDS011;9556;49.374;19.446;2022-09-27T14:05:49;101.65;;;58.20;;
18853;SDS011;9556;49.374;19.446;2022-09-27T14:08:19;90.50;;;57.33;;
18853;SDS011;9556;49.374;19.446;2022-09-27T14:10:49;88.75;;;56.38;;
18853;SDS011;9556;49.374;19.446;2022-09-27T14:13:17;90.30;;;55.53;;
18853;SDS011;9556;49.374;19.446;2022-09-27T14:15:45;89.22;;;55.45;;
18853;SDS011;9556;49.374;19.446;2022-09-27T14:18:12;94.70;;;56.25;;
18853;SDS011;9556;49.374;19.446;2022-09-27T14:20:40;88.85;;;55.63;;
18853;SDS011;9556;49.374;19.446;2022-09-27T14:23:14;92.60;;;55.55;;
18853;SDS011;9556;49.374;19.446;2022-09-27T14:25:45;91.10;;;55.75;;
18853;SDS011;9556;49.374;19.446;2022-09-27T14:28:20;90.72;;;54.92;;